sensor_id;sensor_type;location;lat;lon;timestamp;P1;durP1;ratioP1;P2;durP2;ratioP2
64401;SDS011;50724;42.376;23.768;2023-11-19T00:00:24;1.63;;;1.30;;
64401;SDS011;50724;42.376;23.768;2023-11-19T00:03:24;2.90;;;1.70;;
64401;SDS011;50724;42.376;23.768;2023-11-19T00:06:25;2.90;;;1.37;;
64401;SDS011;50724;42.376;23.768;2023-11-19T00:09:34;2.67;;;1.40;;
64401;SDS011;50724;42.376;23.768;2023-11-19T00:12:44;2.20;;;1.48;;
64401;SDS011;50724;42.376;23.768;2023-11-19T00:15:45;3.17;;;1.90;;
64401;SDS011;50724;42.376;23.768;2023-11-19T00:18:47;3.30;;;1.50;;
64401;SDS011;50724;42.376;23.768;2023-11-19T00:21:47;3.93;;;1.90;;
64401;SDS011;50724;42.376;23.768;2023-11-19T00:24:48;3.25;;;1.73;;
64401;SDS011;50724;42.376;23.768;2023-11-19T00:27:48;3.85;;;1.75;;
64401;SDS011;50724;42.376;23.768;2023-11-19T00:30:50;2.35;;;1.40;;
64401;SDS011;50724;42.376;23.768;2023-11-19T00:33:51;4.78;;;2.40;;
64401;SDS011;50724;42.376;23.768;2023-11-19T00:36:51;3.08;;;1.33;;
64401;SDS011;50724;42.376;23.768;2023-11-19T00:39:52;3.45;;;1.65;;
64401;SDS011;50724;42.376;23.768;2023-11-19T00:43:00;3.42;;;1.88;;
64401;SDS011;50724;42.376;23.768;2023-11-19T00:46:01;3.03;;;1.60;;
64401;SDS011;50724;42.376;23.768;2023-11-19T00:49:03;4.00;;;1.88;;
64401;SDS011;50724;42.376;23.768;2023-11-19T00:52:03;3.13;;;1.70;;
64401;SDS011;50724;42.376;23.768;2023-11-19T00:55:12;3.72;;;1.73;;
64401;SDS011;50724;42.376;23.768;2023-11-19T00:58:13;3.05;;;1.80;;
64401;SDS011;50724;42.376;23.768;2023-11-19T01:01:13;5.00;;;2.05;;
64401;SDS011;50724;42.376;23.768;2023-11-19T01:04:14;3.20;;;1.42;;
64401;SDS011;50724;42.376;23.768;2023-11-19T01:07:15;2.85;;;1.48;;
64401;SDS011;50724;42.376;23.768;2023-11-19T01:10:16;3.25;;;1.90;;
64401;SDS011;50724;42.376;23.768;2023-11-19T01:13:18;3.38;;;1.98;;
64401;SDS011;50724;42.376;23.768;2023-11-19T01:16:19;4.20;;;2.05;;
64401;SDS011;50724;42.376;23.768;2023-11-19T01:19:23;3.72;;;1.73;;
64401;SDS011;50724;42.376;23.768;2023-11-19T01:22:24;4.43;;;2.38;;
64401;SDS011;50724;42.376;23.768;2023-11-19T01:25:24;3.40;;;1.92;;
64401;SDS011;50724;42.376;23.768;2023-11-19T01:28:25;2.47;;;1.23;;
64401;SDS011;50724;42.376;23.768;2023-11-19T01:31:25;4.22;;;2.17;;
64401;SDS011;50724;42.376;23.768;2023-11-19T01:34:26;3.33;;;1.90;;
64401;SDS011;50724;42.376;23.768;2023-11-19T01:37:26;3.47;;;1.85;;
64401;SDS011;50724;42.376;23.768;2023-11-19T01:40:27;4.32;;;1.92;;
64401;SDS011;50724;42.376;23.768;2023-11-19T01:43:37;3.50;;;1.80;;
64401;SDS011;50724;42.376;23.768;2023-11-19T01:46:42;2.28;;;1.33;;
64401;SDS011;50724;42.376;23.768;2023-11-19T01:49:45;4.38;;;1.85;;
64401;SDS011;50724;42.376;23.768;2023-11-19T01:52:45;1.85;;;1.30;;
64401;SDS011;50724;42.376;23.768;2023-11-19T01:55:46;3.85;;;1.63;;
64401;SDS011;50724;42.376;23.768;2023-11-19T01:58:47;2.72;;;1.75;;
64401;SDS011;50724;42.376;23.768;2023-11-19T02:01:49;2.28;;;1.40;;
64401;SDS011;50724;42.376;23.768;2023-11-19T02:04:51;2.17;;;1.48;;
64401;SDS011;50724;42.376;23.768;2023-11-19T02:07:52;5.00;;;2.10;;
64401;SDS011;50724;42.376;23.768;2023-11-19T02:10:53;3.10;;;1.42;;
64401;SDS011;50724;42.376;23.768;2023-11-19T02:13:57;3.45;;;1.40;;
64401;SDS011;50724;42.376;23.768;2023-11-19T02:16:57;4.25;;;1.75;;
64401;SDS011;50724;42.376;23.768;2023-11-19T02:19:58;4.47;;;1.73;;
64401;SDS011;50724;42.376;23.768;2023-11-19T02:22:58;3.25;;;1.73;;
64401;SDS011;50724;42.376;23.768;2023-11-19T02:32:03;3.80;;;1.70;;
64401;SDS011;50724;42.376;23.768;2023-11-19T02:35:03;4.30;;;1.67;;
64401;SDS011;50724;42.376;23.768;2023-11-19T02:38:04;4.32;;;2.10;;
64401;SDS011;50724;42.376;23.768;2023-11-19T02:41:07;3.15;;;1.65;;
64401;SDS011;50724;42.376;23.768;2023-11-19T02:44:07;3.65;;;2.15;;
64401;SDS011;50724;42.376;23.768;2023-11-19T02:47:08;4.32;;;2.53;;
64401;SDS011;50724;42.376;23.768;2023-11-19T02:50:11;4.43;;;2.30;;
64401;SDS011;50724;42.376;23.768;2023-11-19T02:53:15;3.92;;;1.73;;
64401;SDS011;50724;42.376;23.768;2023-11-19T02:56:16;3.00;;;1.70;;
64401;SDS011;50724;42.376;23.768;2023-11-19T02:59:25;3.88;;;1.92;;
64401;SDS011;50724;42.376;23.768;2023-11-19T03:02:39;4.80;;;2.20;;
64401;SDS011;50724;42.376;23.768;2023-11-19T03:05:53;2.00;;;1.33;;
64401;SDS011;50724;42.376;23.768;2023-11-19T03:08:54;2.83;;;1.77;;
64401;SDS011;50724;42.376;23.768;2023-11-19T03:11:55;3.88;;;1.95;;
64401;SDS011;50724;42.376;23.768;2023-11-19T03:14:55;4.63;;;2.13;;
64401;SDS011;50724;42.376;23.768;2023-11-19T03:17:55;2.70;;;1.65;;
64401;SDS011;50724;42.376;23.768;2023-11-19T03:20:56;4.15;;;1.70;;
64401;SDS011;50724;42.376;23.768;2023-11-19T03:23:58;3.13;;;1.75;;
64401;SDS011;50724;42.376;23.768;2023-11-19T03:27:02;3.00;;;1.67;;
64401;SDS011;50724;42.376;23.768;2023-11-19T03:30:07;3.97;;;2.10;;
64401;SDS011;50724;42.376;23.768;2023-11-19T03:33:11;3.28;;;1.98;;
64401;SDS011;50724;42.376;23.768;2023-11-19T03:36:11;2.70;;;1.30;;
64401;SDS011;50724;42.376;23.768;2023-11-19T03:39:12;3.47;;;1.85;;
64401;SDS011;50724;42.376;23.768;2023-11-19T03:42:13;3.50;;;1.70;;
64401;SDS011;50724;42.376;23.768;2023-11-19T03:45:13;2.90;;;1.52;;
64401;SDS011;50724;42.376;23.768;2023-11-19T03:48:15;2.80;;;1.30;;
64401;SDS011;50724;42.376;23.768;2023-11-19T03:51:16;3.33;;;1.90;;
64401;SDS011;50724;42.376;23.768;2023-11-19T03:54:17;5.53;;;2.13;;
64401;SDS011;50724;42.376;23.768;2023-11-19T03:57:18;3.42;;;1.98;;
64401;SDS011;50724;42.376;23.768;2023-11-19T04:00:18;3.13;;;1.67;;
64401;SDS011;50724;42.376;23.768;2023-11-19T04:03:21;3.55;;;1.77;;
64401;SDS011;50724;42.376;23.768;2023-11-19T04:06:30;3.20;;;1.73;;
64401;SDS011;50724;42.376;23.768;2023-11-19T04:09:31;3.78;;;1.60;;
64401;SDS011;50724;42.376;23.768;2023-11-19T04:12:33;3.08;;;1.95;;
64401;SDS011;50724;42.376;23.768;2023-11-19T04:15:33;5.38;;;1.92;;
64401;SDS011;50724;42.376;23.768;2023-11-19T04:18:33;2.40;;;1.50;;
64401;SDS011;50724;42.376;23.768;2023-11-19T04:21:34;5.78;;;2.00;;
64401;SDS011;50724;42.376;23.768;2023-11-19T04:24:35;4.22;;;1.92;;
64401;SDS011;50724;42.376;23.768;2023-11-19T04:27:35;5.30;;;1.63;;
64401;SDS011;50724;42.376;23.768;2023-11-19T04:30:36;4.15;;;2.00;;
64401;SDS011;50724;42.376;23.768;2023-11-19T04:33:37;2.95;;;1.65;;
64401;SDS011;50724;42.376;23.768;2023-11-19T04:36:38;3.58;;;2.00;;
64401;SDS011;50724;42.376;23.768;2023-11-19T04:39:39;3.55;;;1.50;;
64401;SDS011;50724;42.376;23.768;2023-11-19T04:42:39;3.35;;;1.73;;
64401;SDS011;50724;42.376;23.768;2023-11-19T04:45:40;2.58;;;1.60;;
64401;SDS011;50724;42.376;23.768;2023-11-19T04:48:41;4.47;;;2.08;;
64401;SDS011;50724;42.376;23.768;2023-11-19T04:51:41;3.40;;;1.80;;
64401;SDS011;50724;42.376;23.768;2023-11-19T04:54:43;2.55;;;1.73;;
64401;SDS011;50724;42.376;23.768;2023-11-19T04:57:44;2.78;;;1.55;;
64401;SDS011;50724;42.376;23.768;2023-11-19T05:00:44;2.95;;;1.67;;
64401;SDS011;50724;42.376;23.768;2023-11-19T05:03:45;3.17;;;1.55;;
64401;SDS011;50724;42.376;23.768;2023-11-19T05:06:45;2.65;;;1.70;;
64401;SDS011;50724;42.376;23.768;2023-11-19T05:09:46;3.05;;;1.40;;
64401;SDS011;50724;42.376;23.768;2023-11-19T05:12:46;2.75;;;1.50;;
64401;SDS011;50724;42.376;23.768;2023-11-19T05:15:47;3.08;;;1.48;;
64401;SDS011;50724;42.376;23.768;2023-11-19T05:18:47;10.38;;;1.90;;
64401;SDS011;50724;42.376;23.768;2023-11-19T05:21:48;5.55;;;1.83;;
64401;SDS011;50724;42.376;23.768;2023-11-19T05:24:52;3.42;;;2.00;;
64401;SDS011;50724;42.376;23.768;2023-11-19T05:27:52;3.63;;;1.90;;
64401;SDS011;50724;42.376;23.768;2023-11-19T05:30:54;3.05;;;1.85;;
64401;SDS011;50724;42.376;23.768;2023-11-19T05:33:55;4.60;;;2.35;;
64401;SDS011;50724;42.376;23.768;2023-11-19T05:36:55;4.40;;;2.10;;
64401;SDS011;50724;42.376;23.768;2023-11-19T05:39:57;4.90;;;2.20;;
64401;SDS011;50724;42.376;23.768;2023-11-19T05:43:00;5.47;;;2.20;;
64401;SDS011;50724;42.376;23.768;2023-11-19T05:46:00;3.85;;;2.10;;
64401;SDS011;50724;42.376;23.768;2023-11-19T05:49:01;3.53;;;1.90;;
64401;SDS011;50724;42.376;23.768;2023-11-19T05:52:10;6.57;;;2.42;;
64401;SDS011;50724;42.376;23.768;2023-11-19T05:55:12;4.32;;;1.88;;
64401;SDS011;50724;42.376;23.768;2023-11-19T05:58:14;2.63;;;1.63;;
64401;SDS011;50724;42.376;23.768;2023-11-19T06:01:14;3.35;;;1.67;;
64401;SDS011;50724;42.376;23.768;2023-11-19T06:04:15;3.75;;;1.63;;
64401;SDS011;50724;42.376;23.768;2023-11-19T06:07:16;3.72;;;1.77;;
64401;SDS011;50724;42.376;23.768;2023-11-19T06:10:16;4.47;;;1.95;;
64401;SDS011;50724;42.376;23.768;2023-11-19T06:13:17;3.50;;;1.73;;
64401;SDS011;50724;42.376;23.768;2023-11-19T06:16:17;4.95;;;2.40;;
64401;SDS011;50724;42.376;23.768;2023-11-19T06:19:18;4.03;;;2.38;;
64401;SDS011;50724;42.376;23.768;2023-11-19T06:22:18;4.95;;;2.28;;
64401;SDS011;50724;42.376;23.768;2023-11-19T06:25:19;3.00;;;1.73;;
64401;SDS011;50724;42.376;23.768;2023-11-19T06:28:19;4.47;;;1.90;;
64401;SDS011;50724;42.376;23.768;2023-11-19T06:31:20;4.18;;;2.33;;
64401;SDS011;50724;42.376;23.768;2023-11-19T06:34:20;4.25;;;1.80;;
64401;SDS011;50724;42.376;23.768;2023-11-19T06:37:22;4.45;;;1.80;;
64401;SDS011;50724;42.376;23.768;2023-11-19T06:40:23;3.92;;;1.80;;
64401;SDS011;50724;42.376;23.768;2023-11-19T06:43:23;4.15;;;1.80;;
64401;SDS011;50724;42.376;23.768;2023-11-19T06:46:24;4.95;;;2.33;;
64401;SDS011;50724;42.376;23.768;2023-11-19T06:49:24;4.20;;;2.10;;
64401;SDS011;50724;42.376;23.768;2023-11-19T06:52:25;3.67;;;1.80;;
64401;SDS011;50724;42.376;23.768;2023-11-19T06:55:28;4.20;;;1.98;;
64401;SDS011;50724;42.376;23.768;2023-11-19T06:58:29;2.92;;;1.67;;
64401;SDS011;50724;42.376;23.768;2023-11-19T07:01:33;6.80;;;2.15;;
64401;SDS011;50724;42.376;23.768;2023-11-19T07:04:35;4.50;;;2.13;;
64401;SDS011;50724;42.376;23.768;2023-11-19T07:07:36;4.10;;;2.25;;
64401;SDS011;50724;42.376;23.768;2023-11-19T07:10:37;3.08;;;1.73;;
64401;SDS011;50724;42.376;23.768;2023-11-19T07:13:38;3.95;;;1.85;;
64401;SDS011;50724;42.376;23.768;2023-11-19T07:16:41;3.17;;;1.60;;
64401;SDS011;50724;42.376;23.768;2023-11-19T07:19:53;6.50;;;2.33;;
64401;SDS011;50724;42.376;23.768;2023-11-19T07:22:54;3.15;;;1.80;;
64401;SDS011;50724;42.376;23.768;2023-11-19T07:25:56;5.53;;;2.47;;
64401;SDS011;50724;42.376;23.768;2023-11-19T07:28:57;6.53;;;2.45;;
64401;SDS011;50724;42.376;23.768;2023-11-19T07:31:57;3.40;;;2.00;;
64401;SDS011;50724;42.376;23.768;2023-11-19T07:34:58;3.60;;;1.98;;
64401;SDS011;50724;42.376;23.768;2023-11-19T07:38:07;3.50;;;2.00;;
64401;SDS011;50724;42.376;23.768;2023-11-19T07:41:07;4.18;;;2.30;;
64401;SDS011;50724;42.376;23.768;2023-11-19T07:44:12;5.22;;;1.85;;
64401;SDS011;50724;42.376;23.768;2023-11-19T07:47:13;4.47;;;2.20;;
64401;SDS011;50724;42.376;23.768;2023-11-19T07:50:13;4.75;;;2.60;;
64401;SDS011;50724;42.376;23.768;2023-11-19T07:53:16;4.65;;;1.95;;
64401;SDS011;50724;42.376;23.768;2023-11-19T07:56:17;4.45;;;2.42;;
64401;SDS011;50724;42.376;23.768;2023-11-19T07:59:17;5.70;;;2.08;;
64401;SDS011;50724;42.376;23.768;2023-11-19T08:02:18;3.55;;;1.85;;
64401;SDS011;50724;42.376;23.768;2023-11-19T08:05:19;4.47;;;2.33;;
64401;SDS011;50724;42.376;23.768;2023-11-19T08:08:19;3.97;;;2.03;;
64401;SDS011;50724;42.376;23.768;2023-11-19T08:11:19;4.03;;;2.65;;
64401;SDS011;50724;42.376;23.768;2023-11-19T08:14:20;3.67;;;1.88;;
64401;SDS011;50724;42.376;23.768;2023-11-19T08:17:20;4.25;;;2.13;;
64401;SDS011;50724;42.376;23.768;2023-11-19T08:20:23;4.63;;;2.58;;
64401;SDS011;50724;42.376;23.768;2023-11-19T08:23:23;2.95;;;1.42;;
64401;SDS011;50724;42.376;23.768;2023-11-19T08:26:25;4.38;;;2.00;;
64401;SDS011;50724;42.376;23.768;2023-11-19T08:29:26;3.97;;;1.85;;
64401;SDS011;50724;42.376;23.768;2023-11-19T08:32:27;4.45;;;2.05;;
64401;SDS011;50724;42.376;23.768;2023-11-19T08:35:28;3.95;;;1.98;;
64401;SDS011;50724;42.376;23.768;2023-11-19T08:38:30;4.78;;;2.15;;
64401;SDS011;50724;42.376;23.768;2023-11-19T08:41:30;4.95;;;1.75;;
64401;SDS011;50724;42.376;23.768;2023-11-19T08:44:30;3.00;;;1.65;;
64401;SDS011;50724;42.376;23.768;2023-11-19T08:47:31;3.83;;;2.03;;
64401;SDS011;50724;42.376;23.768;2023-11-19T08:50:31;3.03;;;1.70;;
64401;SDS011;50724;42.376;23.768;2023-11-19T08:53:32;5.30;;;2.03;;
64401;SDS011;50724;42.376;23.768;2023-11-19T08:56:32;3.15;;;1.75;;
64401;SDS011;50724;42.376;23.768;2023-11-19T08:59:35;4.05;;;2.33;;
64401;SDS011;50724;42.376;23.768;2023-11-19T09:02:37;6.65;;;2.35;;
64401;SDS011;50724;42.376;23.768;2023-11-19T09:05:38;4.22;;;2.17;;
64401;SDS011;50724;42.376;23.768;2023-11-19T09:08:38;3.88;;;1.92;;
64401;SDS011;50724;42.376;23.768;2023-11-19T09:11:39;6.00;;;2.97;;
64401;SDS011;50724;42.376;23.768;2023-11-19T09:14:39;4.25;;;2.38;;
64401;SDS011;50724;42.376;23.768;2023-11-19T09:17:49;4.22;;;2.08;;
64401;SDS011;50724;42.376;23.768;2023-11-19T09:20:49;5.78;;;2.58;;
64401;SDS011;50724;42.376;23.768;2023-11-19T09:23:50;4.65;;;2.08;;
64401;SDS011;50724;42.376;23.768;2023-11-19T09:26:50;3.42;;;1.80;;
64401;SDS011;50724;42.376;23.768;2023-11-19T09:29:51;3.95;;;2.30;;
64401;SDS011;50724;42.376;23.768;2023-11-19T09:32:57;3.97;;;2.25;;
64401;SDS011;50724;42.376;23.768;2023-11-19T09:35:57;4.50;;;2.50;;
64401;SDS011;50724;42.376;23.768;2023-11-19T09:38:58;5.68;;;2.40;;
64401;SDS011;50724;42.376;23.768;2023-11-19T09:42:00;3.97;;;1.90;;
64401;SDS011;50724;42.376;23.768;2023-11-19T09:45:01;3.10;;;1.83;;
64401;SDS011;50724;42.376;23.768;2023-11-19T09:48:10;3.78;;;2.08;;
64401;SDS011;50724;42.376;23.768;2023-11-19T09:51:11;5.20;;;2.45;;
64401;SDS011;50724;42.376;23.768;2023-11-19T09:54:12;3.78;;;2.28;;
64401;SDS011;50724;42.376;23.768;2023-11-19T09:57:13;4.13;;;2.20;;
64401;SDS011;50724;42.376;23.768;2023-11-19T10:00:17;5.65;;;2.58;;
64401;SDS011;50724;42.376;23.768;2023-11-19T10:03:21;5.20;;;2.25;;
64401;SDS011;50724;42.376;23.768;2023-11-19T10:06:23;5.50;;;2.80;;
64401;SDS011;50724;42.376;23.768;2023-11-19T10:09:26;4.60;;;2.20;;
64401;SDS011;50724;42.376;23.768;2023-11-19T10:12:27;2.88;;;2.00;;
64401;SDS011;50724;42.376;23.768;2023-11-19T10:15:28;6.13;;;2.47;;
64401;SDS011;50724;42.376;23.768;2023-11-19T10:18:36;4.93;;;2.58;;
64401;SDS011;50724;42.376;23.768;2023-11-19T10:21:38;4.28;;;2.00;;
64401;SDS011;50724;42.376;23.768;2023-11-19T10:24:38;4.40;;;2.35;;
64401;SDS011;50724;42.376;23.768;2023-11-19T10:27:41;4.63;;;2.78;;
64401;SDS011;50724;42.376;23.768;2023-11-19T10:30:41;4.50;;;2.30;;
64401;SDS011;50724;42.376;23.768;2023-11-19T10:33:41;4.72;;;2.67;;
64401;SDS011;50724;42.376;23.768;2023-11-19T10:36:44;5.20;;;2.30;;
64401;SDS011;50724;42.376;23.768;2023-11-19T10:39:51;4.93;;;2.88;;
64401;SDS011;50724;42.376;23.768;2023-11-19T10:43:01;4.30;;;2.28;;
64401;SDS011;50724;42.376;23.768;2023-11-19T10:46:12;6.35;;;2.53;;
64401;SDS011;50724;42.376;23.768;2023-11-19T10:49:14;4.50;;;2.53;;
64401;SDS011;50724;42.376;23.768;2023-11-19T10:52:18;5.45;;;2.20;;
64401;SDS011;50724;42.376;23.768;2023-11-19T10:55:21;5.35;;;2.95;;
64401;SDS011;50724;42.376;23.768;2023-11-19T10:58:30;4.47;;;2.50;;
64401;SDS011;50724;42.376;23.768;2023-11-19T11:01:43;4.88;;;2.42;;
64401;SDS011;50724;42.376;23.768;2023-11-19T11:04:45;5.13;;;2.50;;
64401;SDS011;50724;42.376;23.768;2023-11-19T11:07:47;4.90;;;2.35;;
64401;SDS011;50724;42.376;23.768;2023-11-19T11:10:54;4.95;;;2.47;;
64401;SDS011;50724;42.376;23.768;2023-11-19T11:13:57;2.95;;;1.80;;
64401;SDS011;50724;42.376;23.768;2023-11-19T11:17:01;5.35;;;2.22;;
64401;SDS011;50724;42.376;23.768;2023-11-19T11:20:03;6.55;;;2.20;;
64401;SDS011;50724;42.376;23.768;2023-11-19T11:26:29;7.65;;;2.65;;
64401;SDS011;50724;42.376;23.768;2023-11-19T11:36:38;6.15;;;2.38;;
64401;SDS011;50724;42.376;23.768;2023-11-19T11:39:50;4.43;;;2.33;;
64401;SDS011;50724;42.376;23.768;2023-11-19T11:42:50;3.80;;;1.92;;
64401;SDS011;50724;42.376;23.768;2023-11-19T11:45:52;4.38;;;2.42;;
64401;SDS011;50724;42.376;23.768;2023-11-19T11:48:52;4.50;;;2.22;;
64401;SDS011;50724;42.376;23.768;2023-11-19T11:52:02;5.47;;;2.40;;
64401;SDS011;50724;42.376;23.768;2023-11-19T11:55:06;3.33;;;1.83;;
64401;SDS011;50724;42.376;23.768;2023-11-19T11:58:09;3.45;;;2.00;;
64401;SDS011;50724;42.376;23.768;2023-11-19T12:01:10;3.60;;;1.95;;
64401;SDS011;50724;42.376;23.768;2023-11-19T12:04:20;4.13;;;2.05;;
64401;SDS011;50724;42.376;23.768;2023-11-19T12:07:21;5.28;;;2.05;;
64401;SDS011;50724;42.376;23.768;2023-11-19T12:10:23;4.82;;;2.20;;
64401;SDS011;50724;42.376;23.768;2023-11-19T12:13:24;3.03;;;1.75;;
64401;SDS011;50724;42.376;23.768;2023-11-19T12:16:42;2.80;;;1.65;;
64401;SDS011;50724;42.376;23.768;2023-11-19T12:19:43;4.40;;;2.35;;
64401;SDS011;50724;42.376;23.768;2023-11-19T12:22:45;5.07;;;2.38;;
64401;SDS011;50724;42.376;23.768;2023-11-19T12:25:46;4.25;;;1.60;;
64401;SDS011;50724;42.376;23.768;2023-11-19T12:28:57;3.72;;;2.10;;
64401;SDS011;50724;42.376;23.768;2023-11-19T12:31:58;6.10;;;2.55;;
64401;SDS011;50724;42.376;23.768;2023-11-19T12:35:02;5.50;;;2.20;;
64401;SDS011;50724;42.376;23.768;2023-11-19T12:38:03;3.20;;;1.80;;
64401;SDS011;50724;42.376;23.768;2023-11-19T12:41:07;4.57;;;2.20;;
64401;SDS011;50724;42.376;23.768;2023-11-19T12:44:13;3.30;;;1.75;;
64401;SDS011;50724;42.376;23.768;2023-11-19T12:47:13;4.35;;;2.35;;
64401;SDS011;50724;42.376;23.768;2023-11-19T12:50:22;5.03;;;1.83;;
64401;SDS011;50724;42.376;23.768;2023-11-19T12:53:23;3.42;;;1.70;;
64401;SDS011;50724;42.376;23.768;2023-11-19T12:56:25;2.05;;;1.35;;
64401;SDS011;50724;42.376;23.768;2023-11-19T12:59:26;3.55;;;1.88;;
64401;SDS011;50724;42.376;23.768;2023-11-19T13:02:46;2.70;;;1.45;;
64401;SDS011;50724;42.376;23.768;2023-11-19T13:05:48;2.50;;;1.60;;
64401;SDS011;50724;42.376;23.768;2023-11-19T13:08:48;2.63;;;1.47;;
64401;SDS011;50724;42.376;23.768;2023-11-19T13:11:52;3.63;;;1.67;;
64401;SDS011;50724;42.376;23.768;2023-11-19T13:14:54;4.20;;;1.90;;
64401;SDS011;50724;42.376;23.768;2023-11-19T13:17:54;4.28;;;1.80;;
64401;SDS011;50724;42.376;23.768;2023-11-19T13:21:04;3.13;;;1.70;;
64401;SDS011;50724;42.376;23.768;2023-11-19T13:24:06;3.58;;;1.80;;
64401;SDS011;50724;42.376;23.768;2023-11-19T13:27:07;3.83;;;1.60;;
64401;SDS011;50724;42.376;23.768;2023-11-19T13:30:07;3.23;;;1.40;;
64401;SDS011;50724;42.376;23.768;2023-11-19T13:33:08;3.03;;;1.50;;
64401;SDS011;50724;42.376;23.768;2023-11-19T13:36:12;4.38;;;1.73;;
64401;SDS011;50724;42.376;23.768;2023-11-19T13:39:13;5.10;;;1.98;;
64401;SDS011;50724;42.376;23.768;2023-11-19T13:42:15;4.13;;;1.77;;
64401;SDS011;50724;42.376;23.768;2023-11-19T13:45:15;4.53;;;2.22;;
64401;SDS011;50724;42.376;23.768;2023-11-19T13:48:18;3.03;;;1.50;;
64401;SDS011;50724;42.376;23.768;2023-11-19T13:51:18;4.15;;;1.90;;
64401;SDS011;50724;42.376;23.768;2023-11-19T13:54:19;3.90;;;1.60;;
64401;SDS011;50724;42.376;23.768;2023-11-19T13:57:29;4.75;;;2.10;;
64401;SDS011;50724;42.376;23.768;2023-11-19T14:00:31;4.22;;;1.60;;
64401;SDS011;50724;42.376;23.768;2023-11-19T14:03:32;3.60;;;1.80;;
64401;SDS011;50724;42.376;23.768;2023-11-19T14:06:33;2.55;;;1.73;;
64401;SDS011;50724;42.376;23.768;2023-11-19T14:09:34;2.63;;;1.48;;
64401;SDS011;50724;42.376;23.768;2023-11-19T14:12:34;2.78;;;1.48;;
64401;SDS011;50724;42.376;23.768;2023-11-19T14:15:36;3.08;;;1.88;;
64401;SDS011;50724;42.376;23.768;2023-11-19T14:18:37;3.25;;;1.50;;
64401;SDS011;50724;42.376;23.768;2023-11-19T14:21:38;2.75;;;1.33;;
64401;SDS011;50724;42.376;23.768;2023-11-19T14:24:38;3.47;;;1.60;;
64401;SDS011;50724;42.376;23.768;2023-11-19T14:27:43;4.30;;;2.00;;
64401;SDS011;50724;42.376;23.768;2023-11-19T14:30:43;3.60;;;1.88;;
64401;SDS011;50724;42.376;23.768;2023-11-19T14:33:45;2.80;;;1.35;;
64401;SDS011;50724;42.376;23.768;2023-11-19T14:36:46;2.30;;;1.30;;
64401;SDS011;50724;42.376;23.768;2023-11-19T14:39:47;2.95;;;1.58;;
64401;SDS011;50724;42.376;23.768;2023-11-19T14:42:47;3.30;;;1.42;;
64401;SDS011;50724;42.376;23.768;2023-11-19T14:45:48;3.05;;;1.73;;
64401;SDS011;50724;42.376;23.768;2023-11-19T14:48:48;3.40;;;1.35;;
64401;SDS011;50724;42.376;23.768;2023-11-19T14:51:49;4.47;;;1.23;;
64401;SDS011;50724;42.376;23.768;2023-11-19T14:54:50;2.90;;;1.40;;
64401;SDS011;50724;42.376;23.768;2023-11-19T14:57:54;1.92;;;1.30;;
64401;SDS011;50724;42.376;23.768;2023-11-19T15:00:54;3.90;;;1.50;;
64401;SDS011;50724;42.376;23.768;2023-11-19T15:03:54;2.78;;;1.50;;
64401;SDS011;50724;42.376;23.768;2023-11-19T15:06:56;4.68;;;1.70;;
64401;SDS011;50724;42.376;23.768;2023-11-19T15:10:00;3.45;;;1.52;;
64401;SDS011;50724;42.376;23.768;2023-11-19T15:13:00;2.03;;;1.30;;
64401;SDS011;50724;42.376;23.768;2023-11-19T15:16:01;2.15;;;1.40;;
64401;SDS011;50724;42.376;23.768;2023-11-19T15:19:01;4.18;;;1.55;;
64401;SDS011;50724;42.376;23.768;2023-11-19T15:22:05;2.90;;;1.55;;
64401;SDS011;50724;42.376;23.768;2023-11-19T15:25:06;2.95;;;1.55;;
64401;SDS011;50724;42.376;23.768;2023-11-19T15:28:10;2.63;;;1.30;;
64401;SDS011;50724;42.376;23.768;2023-11-19T15:31:10;4.65;;;1.55;;
64401;SDS011;50724;42.376;23.768;2023-11-19T15:34:11;3.05;;;1.60;;
64401;SDS011;50724;42.376;23.768;2023-11-19T15:37:11;2.20;;;1.40;;
64401;SDS011;50724;42.376;23.768;2023-11-19T15:40:14;3.88;;;1.63;;
64401;SDS011;50724;42.376;23.768;2023-11-19T15:43:14;2.92;;;1.67;;
64401;SDS011;50724;42.376;23.768;2023-11-19T15:46:15;3.33;;;1.50;;
64401;SDS011;50724;42.376;23.768;2023-11-19T15:49:16;2.55;;;1.33;;
64401;SDS011;50724;42.376;23.768;2023-11-19T15:52:16;2.25;;;1.20;;
64401;SDS011;50724;42.376;23.768;2023-11-19T15:55:17;2.95;;;1.23;;
64401;SDS011;50724;42.376;23.768;2023-11-19T15:58:18;5.65;;;1.33;;
64401;SDS011;50724;42.376;23.768;2023-11-19T16:01:19;2.22;;;1.20;;
64401;SDS011;50724;42.376;23.768;2023-11-19T16:04:19;3.72;;;1.75;;
64401;SDS011;50724;42.376;23.768;2023-11-19T16:07:20;1.65;;;1.15;;
64401;SDS011;50724;42.376;23.768;2023-11-19T16:10:20;2.45;;;1.23;;
64401;SDS011;50724;42.376;23.768;2023-11-19T16:13:21;1.92;;;1.10;;
64401;SDS011;50724;42.376;23.768;2023-11-19T16:16:21;1.98;;;1.13;;
64401;SDS011;50724;42.376;23.768;2023-11-19T16:19:22;2.58;;;1.08;;
64401;SDS011;50724;42.376;23.768;2023-11-19T16:22:23;2.95;;;1.35;;
64401;SDS011;50724;42.376;23.768;2023-11-19T16:25:25;2.03;;;1.20;;
64401;SDS011;50724;42.376;23.768;2023-11-19T16:28:25;1.73;;;0.93;;
64401;SDS011;50724;42.376;23.768;2023-11-19T16:31:26;1.45;;;0.85;;
64401;SDS011;50724;42.376;23.768;2023-11-19T16:34:26;3.10;;;1.15;;
64401;SDS011;50724;42.376;23.768;2023-11-19T16:37:27;2.40;;;1.20;;
64401;SDS011;50724;42.376;23.768;2023-11-19T16:40:27;2.85;;;1.30;;
64401;SDS011;50724;42.376;23.768;2023-11-19T16:43:28;2.92;;;1.42;;
64401;SDS011;50724;42.376;23.768;2023-11-19T16:46:29;1.65;;;0.95;;
64401;SDS011;50724;42.376;23.768;2023-11-19T16:49:31;3.33;;;1.05;;
64401;SDS011;50724;42.376;23.768;2023-11-19T16:52:32;3.95;;;1.63;;
64401;SDS011;50724;42.376;23.768;2023-11-19T16:55:32;2.30;;;1.20;;
64401;SDS011;50724;42.376;23.768;2023-11-19T16:58:34;1.70;;;0.80;;
64401;SDS011;50724;42.376;23.768;2023-11-19T17:01:35;2.45;;;1.20;;
64401;SDS011;50724;42.376;23.768;2023-11-19T17:04:37;2.40;;;1.27;;
64401;SDS011;50724;42.376;23.768;2023-11-19T17:07:37;1.73;;;1.20;;
64401;SDS011;50724;42.376;23.768;2023-11-19T17:10:46;1.90;;;0.90;;
64401;SDS011;50724;42.376;23.768;2023-11-19T17:13:49;2.22;;;1.20;;
64401;SDS011;50724;42.376;23.768;2023-11-19T17:16:49;2.00;;;1.20;;
64401;SDS011;50724;42.376;23.768;2023-11-19T17:19:50;2.55;;;1.10;;
64401;SDS011;50724;42.376;23.768;2023-11-19T17:22:50;1.73;;;0.88;;
64401;SDS011;50724;42.376;23.768;2023-11-19T17:25:51;1.88;;;1.00;;
64401;SDS011;50724;42.376;23.768;2023-11-19T17:28:52;2.95;;;1.40;;
64401;SDS011;50724;42.376;23.768;2023-11-19T17:31:53;1.98;;;0.95;;
64401;SDS011;50724;42.376;23.768;2023-11-19T17:34:53;1.35;;;0.90;;
64401;SDS011;50724;42.376;23.768;2023-11-19T17:37:53;1.80;;;0.82;;
64401;SDS011;50724;42.376;23.768;2023-11-19T17:40:54;1.93;;;1.63;;
64401;SDS011;50724;42.376;23.768;2023-11-19T17:43:56;2.38;;;1.17;;
64401;SDS011;50724;42.376;23.768;2023-11-19T17:46:57;1.63;;;1.00;;
64401;SDS011;50724;42.376;23.768;2023-11-19T17:49:58;1.85;;;0.90;;
64401;SDS011;50724;42.376;23.768;2023-11-19T17:52:59;1.33;;;0.90;;
64401;SDS011;50724;42.376;23.768;2023-11-19T17:55:59;1.95;;;1.00;;
64401;SDS011;50724;42.376;23.768;2023-11-19T17:58:59;1.55;;;1.10;;
64401;SDS011;50724;42.376;23.768;2023-11-19T18:02:00;1.42;;;0.90;;
64401;SDS011;50724;42.376;23.768;2023-11-19T18:05:02;2.22;;;1.05;;
64401;SDS011;50724;42.376;23.768;2023-11-19T18:08:03;2.85;;;0.80;;
64401;SDS011;50724;42.376;23.768;2023-11-19T18:11:05;1.52;;;0.85;;
64401;SDS011;50724;42.376;23.768;2023-11-19T18:14:05;1.20;;;0.82;;